Address 0xadb83abbf7a8987afb76db33ed2855a07f5497c7 1

 
 
Txn Hash
Block
From
To
Value [Txn Fee]
0xff2d383b0daf9f18e46481cf06b429160cb71c40950b4366840ef915d23a75e897447712021-08-04 15:43:3817 secs ago0xadb83abbf7a8987afb76db33ed2855a07f5497c7OUT 0x563c12eb02eb6c5b7f0ca4bc36322f50f17a48440 BNB0.00012887
0x4f2247f0dd2340e3478c156f1fe72f9f2c90d781e2fdadff77ff53e1e61932a797447602021-08-04 15:43:0550 secs ago0xadb83abbf7a8987afb76db33ed2855a07f5497c7OUT 0x563c12eb02eb6c5b7f0ca4bc36322f50f17a48440 BNB0.00055821
0xd1bbaf10d812d1960e7f5daab6f9242c1890321564b1a7f0400e823a18750a3b97444062021-08-04 15:25:2318 mins ago0xadb83abbf7a8987afb76db33ed2855a07f5497c7OUT 0x4d0f21b8ead79c077179c7db29699b6b2d69f8d80 BNB0.00012887
0xd1ab6202350904d4f0f01e87e6e1ee566c7540a39a5841dc5fea21a4be107b8597444042021-08-04 15:25:1718 mins ago0xadb83abbf7a8987afb76db33ed2855a07f5497c7OUT 0x539acf3167f956219f8ca46709dd5cf61f6420b20 BNB0.00052854
0x55b49e6dba5b382d2c1dc1874429c25594e0d2677803e835199e6a078a03f9f497443972021-08-04 15:24:5618 mins ago0xadb83abbf7a8987afb76db33ed2855a07f5497c7OUT 0x4d0f21b8ead79c077179c7db29699b6b2d69f8d80 BNB0.000527635
0x9e6987e358e38a97f1a5455425c0c93b2551a92b1bc3dac842eb820446d5dfa097440732021-08-04 15:07:3336 mins ago0xadb83abbf7a8987afb76db33ed2855a07f5497c7OUT 0x4d0f21b8ead79c077179c7db29699b6b2d69f8d80 BNB0.00110093
0x58acd46ead67340837e29113194641d079126b26ca5bb4b5882939ff9a49956697437112021-08-04 14:48:5255 mins ago0xadb83abbf7a8987afb76db33ed2855a07f5497c7OUT 0x4d0f21b8ead79c077179c7db29699b6b2d69f8d80 BNB0.00052906
0x72939b33e236c5f68848aab1b5cd39c3bf956743dda7a9cc349d802a7fbf80a297436922021-08-04 14:47:4656 mins ago0xadb83abbf7a8987afb76db33ed2855a07f5497c7OUT 0x563c12eb02eb6c5b7f0ca4bc36322f50f17a48440 BNB0.00054795
0x44899d975dbc5d38efd85fc6c6f7d0699a5c9f417c702a06d9f67432e894c44697436902021-08-04 14:47:3756 mins ago0xadb83abbf7a8987afb76db33ed2855a07f5497c7OUT 0xd2479ee6ab8d2c1479220522a9a8819cc6c40c840 BNB0.000551535
0xb101b3c6dc32d43e120d293f1a24fcb0d263cad3d4a8efe503248c4d7b8591a597436382021-08-04 14:44:2759 mins ago0xadb83abbf7a8987afb76db33ed2855a07f5497c7OUT 0x7806c3c9644121d014d2492224636d16c224547c0 BNB0.00078194
0x1c8825d25b553442ae273cd3f72378817626edb8fa9a6ff72dc461995e6ca6f697434982021-08-04 14:36:341 hr 7 mins ago0xadb83abbf7a8987afb76db33ed2855a07f5497c7OUT 0x7806c3c9644121d014d2492224636d16c224547c0 BNB0.000529105
0x990ba797de100606d04b39d3b98e1e55cd61712c2a8fef64d6be528916c8a4b097434982021-08-04 14:36:341 hr 7 mins ago0xadb83abbf7a8987afb76db33ed2855a07f5497c7OUT 0x4d0f21b8ead79c077179c7db29699b6b2d69f8d80 BNB0.00053309
0x6da049ed6f86145c04bc06ffcd6fe34274f1df25a6eb3a704df34119e0cee53a97434502021-08-04 14:34:101 hr 9 mins ago0xadb83abbf7a8987afb76db33ed2855a07f5497c7OUT 0x563c12eb02eb6c5b7f0ca4bc36322f50f17a48440 BNB0.00012881
0x9793acaec540c3e1d76acc7ca6dcfd95c89d68cb26af7f40dca4a0275e2e234097434492021-08-04 14:34:071 hr 9 mins ago0xadb83abbf7a8987afb76db33ed2855a07f5497c7OUT 0x563c12eb02eb6c5b7f0ca4bc36322f50f17a48440 BNB0.00049103
0xfedfbc170e7d7a1bfc0a9758384df3d1ae96304fa8970f2f883c068acbeecc8397433462021-08-04 14:28:581 hr 14 mins ago0xadb83abbf7a8987afb76db33ed2855a07f5497c7OUT 0x4d0f21b8ead79c077179c7db29699b6b2d69f8d80 BNB0.00054911
0xe217ea4f9def70fffc255ebb2816131c9bab509fb554f6b72f9e8df83611d52797433132021-08-04 14:27:191 hr 16 mins ago0xadb83abbf7a8987afb76db33ed2855a07f5497c7OUT 0x5ce0bc7c3143f92b20677196b38e2c141fe74a220 BNB0.000529675
0xcc65620609a2b4ccc3b21d762833974a65a928609efda8330030f80fbb2ea67497432932021-08-04 14:26:191 hr 17 mins ago0xadb83abbf7a8987afb76db33ed2855a07f5497c7OUT 0x5ce0bc7c3143f92b20677196b38e2c141fe74a220 BNB0.000136095
0xeb7968534a397a92cb9097039d64eebb4b726bda7fd064909e9d9f665aee551297432792021-08-04 14:25:341 hr 18 mins ago0xadb83abbf7a8987afb76db33ed2855a07f5497c7OUT 0x5ce0bc7c3143f92b20677196b38e2c141fe74a220 BNB0.000136095
0x85dce398cffd091f312212073ba26bd47f530b1ba4b108d8b7110197c495badf97431722021-08-04 14:19:061 hr 24 mins ago0xadb83abbf7a8987afb76db33ed2855a07f5497c7OUT 0x563c12eb02eb6c5b7f0ca4bc36322f50f17a48440 BNB0.0005491
0x7a0ef68a25c75dfc3172556078ff9fbe7762fc575d6549c88a92cf09e592f6d797431712021-08-04 14:19:031 hr 24 mins ago0xadb83abbf7a8987afb76db33ed2855a07f5497c7OUT 0x4d0f21b8ead79c077179c7db29699b6b2d69f8d80 BNB0.00078194
0x2a95b1ac4665484e17cb4eab50006eb5841e50a1f9b0a303684db7eb36a8e92e97431622021-08-04 14:18:291 hr 25 mins ago0xadb83abbf7a8987afb76db33ed2855a07f5497c7OUT 0x5ce0bc7c3143f92b20677196b38e2c141fe74a220 BNB0.00012881
0x997a13e10acd98447a2e9270827acd56740bff3e46b6125edaafb8a143c2d35b97431502021-08-04 14:17:531 hr 26 mins ago0xadb83abbf7a8987afb76db33ed2855a07f5497c7OUT 0x5ce0bc7c3143f92b20677196b38e2c141fe74a220 BNB0.00053846
0xe59060f1f043a41fdf02e10c4ff579e3e157331c32f292e2ca44dd62c4f6036897431162021-08-04 14:16:111 hr 27 mins ago0xadb83abbf7a8987afb76db33ed2855a07f5497c7OUT 0x08823754312e81af8c7087292717cb4c1a01bc7c0 BNB0.000397855
0x490aa731e0ef868e1fde0c71a726cb5d7a05bf9b86b850d74a38a6d17f63313497431002021-08-04 14:15:231 hr 28 mins ago0xadb83abbf7a8987afb76db33ed2855a07f5497c7OUT 0xaa776d053e3a787afefa265c7264a5fb0fd0e42b0 BNB0.000398615
0xb32f3acb8659fba9ce57c3db3e35327809c5e7f4e895e437f07eab4dddc48d4497431002021-08-04 14:15:231 hr 28 mins ago0xadb83abbf7a8987afb76db33ed2855a07f5497c7OUT 0x859e2025e0318f0e2995a3f2bae150d687f435cf0 BNB0.000397575
[ Download CSV Export 
Parent Txn Hash Block From To Value
Loading

Contract Name:
0 BNB

Compiler Version
0

Optimization Enabled:
0 BNB

Other Settings:
-NA-
Block Transaction Gas Used Reward
Age Block Fee Address BC Fee Address Voting Power Jailed Incoming
Block Uncle Number Difficulty Gas Used Reward
Loading
Loading
Make sure to use the "Vote Down" button for any spammy posts, and the "Vote Up" for interesting conversations.